createdAt,value
2022-11-01T19:31:45.257Z,13.32
2022-11-01T19:34:20.439Z,13.12
2022-11-01T19:36:52.573Z,13.12
2022-11-01T19:39:30.870Z,13.15
2022-11-01T19:42:11.355Z,13.07
2022-11-01T19:44:38.155Z,13.01
2022-11-01T19:47:41.799Z,13.18
2022-11-01T19:50:39.248Z,13.00
2022-11-01T19:53:33.416Z,13.07
2022-11-01T19:56:10.000Z,13.13
2022-11-01T19:58:46.502Z,13.01
2022-11-01T20:01:25.549Z,13.01
2022-11-01T20:03:57.903Z,12.96
2022-11-01T20:06:40.294Z,13.09
2022-11-01T20:09:24.945Z,13.04
2022-11-01T20:11:52.981Z,12.94
2022-11-01T20:14:20.350Z,13.05
2022-11-01T20:16:47.298Z,13.06
2022-11-01T20:19:17.489Z,13.06
2022-11-01T20:21:45.362Z,13.03
2022-11-01T20:24:12.620Z,13.00
2022-11-01T20:26:39.809Z,13.05
2022-11-01T20:29:06.670Z,12.96
2022-11-01T20:31:33.531Z,13.03
2022-11-01T20:34:00.385Z,13.00
2022-11-01T20:36:28.257Z,12.98
2022-11-01T20:38:55.347Z,12.92
2022-11-01T20:41:22.396Z,13.02
2022-11-01T20:43:49.566Z,13.03
2022-11-01T20:46:16.646Z,13.06
2022-11-01T20:48:45.154Z,12.91
2022-11-01T20:51:13.466Z,12.90
2022-11-01T20:53:42.554Z,12.78
2022-11-01T20:56:09.646Z,12.74
2022-11-01T20:58:40.246Z,12.80
2022-11-01T21:01:15.821Z,12.71
2022-11-01T21:03:43.285Z,12.69
2022-11-01T21:06:19.165Z,12.63
2022-11-01T21:08:47.565Z,12.58
2022-11-01T21:11:25.912Z,12.58
2022-11-01T21:13:52.904Z,12.62
2022-11-01T21:16:28.766Z,12.61
2022-11-01T21:19:02.660Z,12.60
2022-11-01T21:21:35.794Z,12.54
2022-11-01T21:24:23.601Z,12.56
2022-11-01T21:26:55.001Z,12.60
2022-11-01T21:29:29.902Z,12.40
2022-11-01T21:31:57.126Z,12.45
2022-11-01T21:34:26.341Z,12.44
2022-11-01T21:36:53.392Z,12.52
2022-11-01T21:39:23.040Z,12.36
2022-11-01T21:42:22.442Z,12.48
2022-11-01T21:44:49.352Z,12.39
2022-11-01T21:47:32.623Z,12.46
2022-11-01T21:49:59.409Z,12.40
2022-11-01T21:52:26.312Z,12.22
2022-11-01T21:54:53.175Z,12.25
2022-11-01T21:57:20.059Z,12.26
2022-11-01T21:59:47.081Z,12.26
2022-11-01T22:02:15.071Z,12.34
2022-11-01T22:04:42.569Z,12.36
2022-11-01T22:07:12.143Z,12.39
2022-11-01T22:09:39.407Z,12.33
2022-11-01T22:12:06.924Z,12.15
2022-11-01T22:14:34.358Z,12.22
2022-11-01T22:17:01.196Z,12.24
2022-11-01T22:19:28.046Z,12.29
2022-11-01T22:21:54.967Z,12.36
2022-11-01T22:24:23.393Z,12.27
2022-11-01T22:26:50.316Z,12.25
2022-11-01T22:29:17.531Z,12.20
2022-11-01T22:31:44.371Z,12.10
2022-11-01T22:34:11.304Z,11.95
2022-11-01T22:36:40.503Z,12.09
2022-11-01T22:39:17.413Z,12.10
2022-11-01T22:41:44.493Z,12.14
2022-11-01T22:44:32.848Z,12.03
2022-11-01T22:47:02.061Z,12.05
2022-11-01T22:49:36.060Z,12.09
2022-11-01T22:52:37.113Z,12.13
2022-11-01T22:55:12.979Z,11.98
2022-11-01T22:57:54.332Z,11.88
2022-11-01T23:00:38.910Z,11.79
2022-11-01T23:03:23.661Z,11.81
2022-11-01T23:05:53.812Z,11.89
2022-11-01T23:08:29.670Z,11.71
2022-11-01T23:10:57.185Z,11.83
2022-11-01T23:13:55.555Z,12.00
2022-11-01T23:16:25.587Z,12.16
2022-11-01T23:18:57.408Z,12.09
2022-11-01T23:21:24.856Z,12.01
2022-11-01T23:23:51.948Z,11.94
2022-11-01T23:26:20.238Z,11.82
2022-11-01T23:28:56.360Z,11.75
2022-11-01T23:31:25.518Z,11.77
2022-11-01T23:33:52.581Z,11.76
2022-11-01T23:36:33.336Z,11.50
2022-11-01T23:39:12.431Z,11.33
2022-11-01T23:41:43.404Z,11.33
2022-11-01T23:44:37.421Z,11.38
2022-11-01T23:47:37.288Z,11.47
2022-11-01T23:50:30.255Z,11.33
2022-11-01T23:53:09.690Z,11.44
2022-11-01T23:55:45.128Z,11.43
2022-11-01T23:58:27.315Z,11.40
